sensor_id;sensor_type;location;lat;lon;timestamp;temperature;humidity
17495;DHT22;8864;51.970;4.614;2023-07-24T00:02:08;24.10;62.80
17495;DHT22;8864;51.970;4.614;2023-07-24T00:04:34;24.10;62.80
17495;DHT22;8864;51.970;4.614;2023-07-24T00:07:01;24.10;62.80
17495;DHT22;8864;51.970;4.614;2023-07-24T00:09:29;24.10;62.80
17495;DHT22;8864;51.970;4.614;2023-07-24T00:11:56;24.10;62.80
17495;DHT22;8864;51.970;4.614;2023-07-24T00:14:23;24.10;62.80
17495;DHT22;8864;51.970;4.614;2023-07-24T00:16:50;24.10;62.80
17495;DHT22;8864;51.970;4.614;2023-07-24T00:19:18;24.10;62.80
17495;DHT22;8864;51.970;4.614;2023-07-24T00:21:45;24.10;62.90
17495;DHT22;8864;51.970;4.614;2023-07-24T00:24:12;24.10;62.80
17495;DHT22;8864;51.970;4.614;2023-07-24T00:26:39;24.10;62.80
17495;DHT22;8864;51.970;4.614;2023-07-24T00:29:06;24.10;62.80
17495;DHT22;8864;51.970;4.614;2023-07-24T00:31:33;24.10;62.80
17495;DHT22;8864;51.970;4.614;2023-07-24T00:34:00;24.10;62.90
17495;DHT22;8864;51.970;4.614;2023-07-24T00:36:28;24.10;63.60
17495;DHT22;8864;51.970;4.614;2023-07-24T00:38:55;24.10;62.90
17495;DHT22;8864;51.970;4.614;2023-07-24T00:41:22;24.10;62.90
17495;DHT22;8864;51.970;4.614;2023-07-24T00:43:49;24.10;62.80
17495;DHT22;8864;51.970;4.614;2023-07-24T00:46:16;24.10;62.90
17495;DHT22;8864;51.970;4.614;2023-07-24T00:48:43;24.10;62.90
17495;DHT22;8864;51.970;4.614;2023-07-24T00:51:10;24.10;63.00
17495;DHT22;8864;51.970;4.614;2023-07-24T00:53:39;24.00;62.80
17495;DHT22;8864;51.970;4.614;2023-07-24T00:56:07;24.10;62.90
17495;DHT22;8864;51.970;4.614;2023-07-24T00:58:37;24.00;62.80
17495;DHT22;8864;51.970;4.614;2023-07-24T01:01:04;24.00;62.80
17495;DHT22;8864;51.970;4.614;2023-07-24T01:03:33;24.00;62.80
17495;DHT22;8864;51.970;4.614;2023-07-24T01:06:01;24.00;62.80
17495;DHT22;8864;51.970;4.614;2023-07-24T01:08:29;24.00;62.90
17495;DHT22;8864;51.970;4.614;2023-07-24T01:11:03;24.00;62.90
17495;DHT22;8864;51.970;4.614;2023-07-24T01:13:36;24.00;62.90
17495;DHT22;8864;51.970;4.614;2023-07-24T01:16:10;24.00;62.90
17495;DHT22;8864;51.970;4.614;2023-07-24T01:18:39;24.00;62.80
17495;DHT22;8864;51.970;4.614;2023-07-24T01:21:09;24.00;62.90
17495;DHT22;8864;51.970;4.614;2023-07-24T01:23:45;24.00;62.90
17495;DHT22;8864;51.970;4.614;2023-07-24T01:26:21;24.00;62.90
17495;DHT22;8864;51.970;4.614;2023-07-24T01:28:49;24.00;62.90
17495;DHT22;8864;51.970;4.614;2023-07-24T01:31:16;24.00;62.90
17495;DHT22;8864;51.970;4.614;2023-07-24T01:33:43;24.00;63.00
17495;DHT22;8864;51.970;4.614;2023-07-24T01:36:11;24.00;63.00
17495;DHT22;8864;51.970;4.614;2023-07-24T01:38:39;24.00;63.00
17495;DHT22;8864;51.970;4.614;2023-07-24T01:41:07;24.00;63.00
17495;DHT22;8864;51.970;4.614;2023-07-24T01:43:35;24.00;63.00
17495;DHT22;8864;51.970;4.614;2023-07-24T01:46:02;24.00;63.00
17495;DHT22;8864;51.970;4.614;2023-07-24T01:48:29;24.00;63.00
17495;DHT22;8864;51.970;4.614;2023-07-24T01:50:56;24.00;62.90
17495;DHT22;8864;51.970;4.614;2023-07-24T01:53:23;24.00;63.00
17495;DHT22;8864;51.970;4.614;2023-07-24T01:55:50;24.00;63.00
17495;DHT22;8864;51.970;4.614;2023-07-24T01:58:17;24.00;63.00
17495;DHT22;8864;51.970;4.614;2023-07-24T02:00:45;24.00;63.00
17495;DHT22;8864;51.970;4.614;2023-07-24T02:03:12;24.00;63.00
17495;DHT22;8864;51.970;4.614;2023-07-24T02:05:39;24.00;63.00
17495;DHT22;8864;51.970;4.614;2023-07-24T02:08:06;24.00;63.00
17495;DHT22;8864;51.970;4.614;2023-07-24T02:10:36;24.00;63.00
17495;DHT22;8864;51.970;4.614;2023-07-24T02:13:03;24.00;63.00
17495;DHT22;8864;51.970;4.614;2023-07-24T02:15:33;24.00;63.00
17495;DHT22;8864;51.970;4.614;2023-07-24T02:18:01;24.00;63.10
17495;DHT22;8864;51.970;4.614;2023-07-24T02:20:28;24.00;63.00
17495;DHT22;8864;51.970;4.614;2023-07-24T02:22:55;24.00;63.00
17495;DHT22;8864;51.970;4.614;2023-07-24T02:25:22;24.00;63.00
17495;DHT22;8864;51.970;4.614;2023-07-24T02:27:49;24.00;63.10
17495;DHT22;8864;51.970;4.614;2023-07-24T02:30:16;24.00;63.10
17495;DHT22;8864;51.970;4.614;2023-07-24T02:32:43;24.00;63.10
17495;DHT22;8864;51.970;4.614;2023-07-24T02:35:11;24.00;63.10
17495;DHT22;8864;51.970;4.614;2023-07-24T02:37:38;24.00;63.00
17495;DHT22;8864;51.970;4.614;2023-07-24T02:40:07;24.00;63.10
17495;DHT22;8864;51.970;4.614;2023-07-24T02:42:34;24.00;63.10
17495;DHT22;8864;51.970;4.614;2023-07-24T02:45:01;24.00;63.10
17495;DHT22;8864;51.970;4.614;2023-07-24T02:47:27;24.00;63.10
17495;DHT22;8864;51.970;4.614;2023-07-24T02:49:54;24.00;63.10
17495;DHT22;8864;51.970;4.614;2023-07-24T02:52:24;24.00;63.10
17495;DHT22;8864;51.970;4.614;2023-07-24T02:54:51;24.00;63.10
17495;DHT22;8864;51.970;4.614;2023-07-24T02:57:18;24.00;63.10
17495;DHT22;8864;51.970;4.614;2023-07-24T02:59:44;23.90;63.10
17495;DHT22;8864;51.970;4.614;2023-07-24T03:02:12;23.90;63.10
17495;DHT22;8864;51.970;4.614;2023-07-24T03:04:39;23.90;63.10
17495;DHT22;8864;51.970;4.614;2023-07-24T03:07:06;24.00;63.10
17495;DHT22;8864;51.970;4.614;2023-07-24T03:09:34;24.00;63.10
17495;DHT22;8864;51.970;4.614;2023-07-24T03:12:01;23.90;63.10
17495;DHT22;8864;51.970;4.614;2023-07-24T03:14:28;23.90;63.10
17495;DHT22;8864;51.970;4.614;2023-07-24T03:16:55;23.90;63.90
17495;DHT22;8864;51.970;4.614;2023-07-24T03:19:22;23.90;63.00
17495;DHT22;8864;51.970;4.614;2023-07-24T03:21:49;23.90;63.10
17495;DHT22;8864;51.970;4.614;2023-07-24T03:24:16;23.90;63.10
17495;DHT22;8864;51.970;4.614;2023-07-24T03:26:44;23.90;63.10
17495;DHT22;8864;51.970;4.614;2023-07-24T03:29:11;23.90;63.00
17495;DHT22;8864;51.970;4.614;2023-07-24T03:31:38;23.90;63.10
17495;DHT22;8864;51.970;4.614;2023-07-24T03:34:05;23.90;63.10
17495;DHT22;8864;51.970;4.614;2023-07-24T03:36:32;24.00;63.10
17495;DHT22;8864;51.970;4.614;2023-07-24T03:38:59;23.90;63.10
17495;DHT22;8864;51.970;4.614;2023-07-24T03:41:26;23.90;63.10
17495;DHT22;8864;51.970;4.614;2023-07-24T03:43:54;23.90;63.10
17495;DHT22;8864;51.970;4.614;2023-07-24T03:46:21;23.90;63.10
17495;DHT22;8864;51.970;4.614;2023-07-24T03:48:48;23.90;63.00
17495;DHT22;8864;51.970;4.614;2023-07-24T03:51:16;23.90;63.10
17495;DHT22;8864;51.970;4.614;2023-07-24T03:53:43;23.90;63.00
17495;DHT22;8864;51.970;4.614;2023-07-24T03:56:10;23.90;63.10
17495;DHT22;8864;51.970;4.614;2023-07-24T03:58:37;23.90;63.10
17495;DHT22;8864;51.970;4.614;2023-07-24T04:01:06;23.90;63.10
17495;DHT22;8864;51.970;4.614;2023-07-24T04:03:33;23.90;63.10
17495;DHT22;8864;51.970;4.614;2023-07-24T04:06:00;23.90;63.10
17495;DHT22;8864;51.970;4.614;2023-07-24T04:08:27;23.90;63.10
17495;DHT22;8864;51.970;4.614;2023-07-24T04:10:54;23.90;63.10
17495;DHT22;8864;51.970;4.614;2023-07-24T04:13:22;23.90;63.10
17495;DHT22;8864;51.970;4.614;2023-07-24T04:15:49;23.90;63.90
17495;DHT22;8864;51.970;4.614;2023-07-24T04:18:17;23.90;63.10
17495;DHT22;8864;51.970;4.614;2023-07-24T04:20:44;23.90;63.10
17495;DHT22;8864;51.970;4.614;2023-07-24T04:23:11;23.90;63.20
17495;DHT22;8864;51.970;4.614;2023-07-24T04:25:37;23.90;63.20
17495;DHT22;8864;51.970;4.614;2023-07-24T04:28:04;23.90;63.10
17495;DHT22;8864;51.970;4.614;2023-07-24T04:33:46;23.90;63.10
17495;DHT22;8864;51.970;4.614;2023-07-24T04:36:13;23.90;63.10
17495;DHT22;8864;51.970;4.614;2023-07-24T04:38:40;23.90;63.10
17495;DHT22;8864;51.970;4.614;2023-07-24T04:41:07;23.90;63.10
17495;DHT22;8864;51.970;4.614;2023-07-24T04:43:34;23.90;63.20
17495;DHT22;8864;51.970;4.614;2023-07-24T04:46:01;23.80;63.10
17495;DHT22;8864;51.970;4.614;2023-07-24T04:48:28;23.90;63.20
17495;DHT22;8864;51.970;4.614;2023-07-24T04:50:56;23.90;63.20
17495;DHT22;8864;51.970;4.614;2023-07-24T04:53:24;23.90;63.20
17495;DHT22;8864;51.970;4.614;2023-07-24T04:55:51;23.80;63.10
17495;DHT22;8864;51.970;4.614;2023-07-24T04:58:17;23.80;63.10
17495;DHT22;8864;51.970;4.614;2023-07-24T05:00:44;23.80;63.10
17495;DHT22;8864;51.970;4.614;2023-07-24T05:03:11;23.80;63.10
17495;DHT22;8864;51.970;4.614;2023-07-24T05:05:38;23.80;63.10
17495;DHT22;8864;51.970;4.614;2023-07-24T05:08:06;23.80;63.10
17495;DHT22;8864;51.970;4.614;2023-07-24T05:10:35;23.80;63.20
17495;DHT22;8864;51.970;4.614;2023-07-24T05:13:01;23.80;63.10
17495;DHT22;8864;51.970;4.614;2023-07-24T05:15:29;23.90;63.10
17495;DHT22;8864;51.970;4.614;2023-07-24T05:17:55;23.80;63.10
17495;DHT22;8864;51.970;4.614;2023-07-24T05:20:22;23.80;63.10
17495;DHT22;8864;51.970;4.614;2023-07-24T05:22:49;23.80;63.10
17495;DHT22;8864;51.970;4.614;2023-07-24T05:25:17;23.80;63.10
17495;DHT22;8864;51.970;4.614;2023-07-24T05:27:44;23.80;63.10
17495;DHT22;8864;51.970;4.614;2023-07-24T05:30:11;23.90;63.20
17495;DHT22;8864;51.970;4.614;2023-07-24T05:32:38;23.80;63.10
17495;DHT22;8864;51.970;4.614;2023-07-24T05:35:06;23.80;63.10
17495;DHT22;8864;51.970;4.614;2023-07-24T05:37:33;23.80;63.00
17495;DHT22;8864;51.970;4.614;2023-07-24T05:40:00;23.80;63.10
17495;DHT22;8864;51.970;4.614;2023-07-24T05:42:28;23.80;63.00
17495;DHT22;8864;51.970;4.614;2023-07-24T05:44:55;23.80;63.00
17495;DHT22;8864;51.970;4.614;2023-07-24T05:47:22;23.80;63.10
17495;DHT22;8864;51.970;4.614;2023-07-24T05:49:49;23.90;63.10
17495;DHT22;8864;51.970;4.614;2023-07-24T05:52:16;23.80;63.00
17495;DHT22;8864;51.970;4.614;2023-07-24T05:54:43;23.80;63.10
17495;DHT22;8864;51.970;4.614;2023-07-24T05:57:10;23.80;63.10
17495;DHT22;8864;51.970;4.614;2023-07-24T05:59:38;23.80;63.10
17495;DHT22;8864;51.970;4.614;2023-07-24T06:02:05;23.80;63.10
17495;DHT22;8864;51.970;4.614;2023-07-24T06:04:32;23.80;63.10
17495;DHT22;8864;51.970;4.614;2023-07-24T06:07:00;23.80;63.10
17495;DHT22;8864;51.970;4.614;2023-07-24T06:09:26;23.80;63.10
17495;DHT22;8864;51.970;4.614;2023-07-24T06:11:53;23.90;63.10
17495;DHT22;8864;51.970;4.614;2023-07-24T06:14:20;23.80;63.10
17495;DHT22;8864;51.970;4.614;2023-07-24T06:16:49;23.80;63.10
17495;DHT22;8864;51.970;4.614;2023-07-24T06:19:15;23.80;63.10
17495;DHT22;8864;51.970;4.614;2023-07-24T06:21:42;23.80;63.10
17495;DHT22;8864;51.970;4.614;2023-07-24T06:24:10;23.80;63.10
17495;DHT22;8864;51.970;4.614;2023-07-24T06:26:38;23.80;63.10
17495;DHT22;8864;51.970;4.614;2023-07-24T06:29:05;23.90;63.20
17495;DHT22;8864;51.970;4.614;2023-07-24T06:31:32;23.80;63.10
17495;DHT22;8864;51.970;4.614;2023-07-24T06:34:00;23.80;63.20
17495;DHT22;8864;51.970;4.614;2023-07-24T06:36:27;23.80;63.20
17495;DHT22;8864;51.970;4.614;2023-07-24T06:38:54;23.90;63.30
17495;DHT22;8864;51.970;4.614;2023-07-24T06:41:21;23.80;63.30
17495;DHT22;8864;51.970;4.614;2023-07-24T06:43:48;23.80;63.30
17495;DHT22;8864;51.970;4.614;2023-07-24T06:46:15;23.80;63.30
17495;DHT22;8864;51.970;4.614;2023-07-24T06:48:42;23.80;63.30
17495;DHT22;8864;51.970;4.614;2023-07-24T06:51:10;23.80;63.30
17495;DHT22;8864;51.970;4.614;2023-07-24T06:53:37;23.80;63.30
17495;DHT22;8864;51.970;4.614;2023-07-24T06:56:04;23.80;63.30
17495;DHT22;8864;51.970;4.614;2023-07-24T06:58:31;23.80;63.30
17495;DHT22;8864;51.970;4.614;2023-07-24T07:00:58;23.80;63.40
17495;DHT22;8864;51.970;4.614;2023-07-24T07:03:25;23.80;63.40
17495;DHT22;8864;51.970;4.614;2023-07-24T07:05:58;23.80;63.30
17495;DHT22;8864;51.970;4.614;2023-07-24T07:08:26;23.80;63.40
17495;DHT22;8864;51.970;4.614;2023-07-24T07:10:55;23.80;63.30
17495;DHT22;8864;51.970;4.614;2023-07-24T07:13:22;23.80;63.40
17495;DHT22;8864;51.970;4.614;2023-07-24T07:15:49;23.80;63.40
17495;DHT22;8864;51.970;4.614;2023-07-24T07:18:16;23.80;63.40
17495;DHT22;8864;51.970;4.614;2023-07-24T07:20:45;23.80;63.40
17495;DHT22;8864;51.970;4.614;2023-07-24T07:23:13;23.80;63.40
17495;DHT22;8864;51.970;4.614;2023-07-24T07:25:41;23.90;63.50
17495;DHT22;8864;51.970;4.614;2023-07-24T07:28:10;23.80;63.40
17495;DHT22;8864;51.970;4.614;2023-07-24T07:30:37;23.90;63.50
17495;DHT22;8864;51.970;4.614;2023-07-24T07:33:04;23.90;63.40
17495;DHT22;8864;51.970;4.614;2023-07-24T07:35:31;23.90;63.50
17495;DHT22;8864;51.970;4.614;2023-07-24T07:37:59;23.90;63.40
17495;DHT22;8864;51.970;4.614;2023-07-24T07:40:26;23.90;64.20
17495;DHT22;8864;51.970;4.614;2023-07-24T07:42:54;23.90;63.40
17495;DHT22;8864;51.970;4.614;2023-07-24T07:45:22;23.90;63.40
17495;DHT22;8864;51.970;4.614;2023-07-24T07:47:49;23.90;63.40
17495;DHT22;8864;51.970;4.614;2023-07-24T07:50:19;23.80;63.40
17495;DHT22;8864;51.970;4.614;2023-07-24T07:52:48;23.90;63.40
17495;DHT22;8864;51.970;4.614;2023-07-24T07:55:16;23.90;63.40
17495;DHT22;8864;51.970;4.614;2023-07-24T07:57:43;23.90;63.40
17495;DHT22;8864;51.970;4.614;2023-07-24T08:00:12;23.90;63.40
17495;DHT22;8864;51.970;4.614;2023-07-24T08:02:39;23.90;63.40
17495;DHT22;8864;51.970;4.614;2023-07-24T08:05:07;23.90;63.40
17495;DHT22;8864;51.970;4.614;2023-07-24T08:07:34;23.90;63.40
17495;DHT22;8864;51.970;4.614;2023-07-24T08:10:01;23.90;63.40
17495;DHT22;8864;51.970;4.614;2023-07-24T08:12:28;23.90;63.30
17495;DHT22;8864;51.970;4.614;2023-07-24T08:14:55;23.90;63.30
17495;DHT22;8864;51.970;4.614;2023-07-24T08:17:24;23.90;63.30
17495;DHT22;8864;51.970;4.614;2023-07-24T08:19:51;23.90;63.30
17495;DHT22;8864;51.970;4.614;2023-07-24T08:22:18;23.90;63.30
17495;DHT22;8864;51.970;4.614;2023-07-24T08:24:45;23.90;64.20
17495;DHT22;8864;51.970;4.614;2023-07-24T08:27:12;23.90;63.30
17495;DHT22;8864;51.970;4.614;2023-07-24T08:29:39;23.90;63.40
17495;DHT22;8864;51.970;4.614;2023-07-24T08:32:07;23.90;63.40
17495;DHT22;8864;51.970;4.614;2023-07-24T08:34:35;23.90;63.40
17495;DHT22;8864;51.970;4.614;2023-07-24T08:37:02;23.90;63.30
17495;DHT22;8864;51.970;4.614;2023-07-24T08:39:30;24.00;63.40
17495;DHT22;8864;51.970;4.614;2023-07-24T08:41:57;24.00;63.40
17495;DHT22;8864;51.970;4.614;2023-07-24T08:44:25;24.00;63.40
17495;DHT22;8864;51.970;4.614;2023-07-24T08:46:56;24.00;63.40
17495;DHT22;8864;51.970;4.614;2023-07-24T08:49:24;24.00;63.40
17495;DHT22;8864;51.970;4.614;2023-07-24T08:51:54;24.00;63.40
17495;DHT22;8864;51.970;4.614;2023-07-24T08:54:26;24.00;63.40
17495;DHT22;8864;51.970;4.614;2023-07-24T08:56:53;24.00;63.40
17495;DHT22;8864;51.970;4.614;2023-07-24T08:59:21;24.00;63.40
17495;DHT22;8864;51.970;4.614;2023-07-24T09:01:47;24.00;63.40
17495;DHT22;8864;51.970;4.614;2023-07-24T09:04:14;24.00;63.30
17495;DHT22;8864;51.970;4.614;2023-07-24T09:06:42;24.00;63.30
17495;DHT22;8864;51.970;4.614;2023-07-24T09:09:14;24.00;63.30
17495;DHT22;8864;51.970;4.614;2023-07-24T09:11:49;24.00;63.30
17495;DHT22;8864;51.970;4.614;2023-07-24T09:14:23;24.00;63.30
17495;DHT22;8864;51.970;4.614;2023-07-24T09:17:02;24.00;63.30
17495;DHT22;8864;51.970;4.614;2023-07-24T09:19:29;24.00;63.30
17495;DHT22;8864;51.970;4.614;2023-07-24T09:21:56;24.00;63.30
17495;DHT22;8864;51.970;4.614;2023-07-24T09:24:24;24.00;63.30
17495;DHT22;8864;51.970;4.614;2023-07-24T09:26:52;24.00;63.30
17495;DHT22;8864;51.970;4.614;2023-07-24T09:29:19;24.10;63.30
17495;DHT22;8864;51.970;4.614;2023-07-24T09:31:46;24.00;63.30
17495;DHT22;8864;51.970;4.614;2023-07-24T09:34:15;24.00;63.30
17495;DHT22;8864;51.970;4.614;2023-07-24T09:36:42;24.00;63.30
17495;DHT22;8864;51.970;4.614;2023-07-24T09:39:09;24.00;63.20
17495;DHT22;8864;51.970;4.614;2023-07-24T09:41:39;24.00;63.30
17495;DHT22;8864;51.970;4.614;2023-07-24T09:44:06;24.00;63.20
17495;DHT22;8864;51.970;4.614;2023-07-24T09:46:33;24.00;63.30
17495;DHT22;8864;51.970;4.614;2023-07-24T09:49:00;24.00;63.30
17495;DHT22;8864;51.970;4.614;2023-07-24T09:51:29;24.10;63.30
17495;DHT22;8864;51.970;4.614;2023-07-24T09:54:01;24.00;63.20
17495;DHT22;8864;51.970;4.614;2023-07-24T09:56:33;24.00;63.20
17495;DHT22;8864;51.970;4.614;2023-07-24T09:59:02;24.10;63.30
17495;DHT22;8864;51.970;4.614;2023-07-24T10:01:31;24.10;63.30
17495;DHT22;8864;51.970;4.614;2023-07-24T10:03:59;24.10;63.30
17495;DHT22;8864;51.970;4.614;2023-07-24T10:06:27;24.10;63.30
17495;DHT22;8864;51.970;4.614;2023-07-24T10:08:56;24.10;63.30
17495;DHT22;8864;51.970;4.614;2023-07-24T10:11:25;24.10;63.30
17495;DHT22;8864;51.970;4.614;2023-07-24T10:13:53;24.10;63.30
17495;DHT22;8864;51.970;4.614;2023-07-24T10:16:21;24.10;63.30
17495;DHT22;8864;51.970;4.614;2023-07-24T10:18:49;24.10;63.30
17495;DHT22;8864;51.970;4.614;2023-07-24T10:21:16;24.10;63.30
17495;DHT22;8864;51.970;4.614;2023-07-24T10:23:44;24.10;63.30
17495;DHT22;8864;51.970;4.614;2023-07-24T10:26:13;24.10;63.20
17495;DHT22;8864;51.970;4.614;2023-07-24T10:28:41;24.10;63.20
17495;DHT22;8864;51.970;4.614;2023-07-24T10:31:19;24.10;63.20
17495;DHT22;8864;51.970;4.614;2023-07-24T10:33:48;24.10;63.30
17495;DHT22;8864;51.970;4.614;2023-07-24T10:36:17;24.10;63.20
17495;DHT22;8864;51.970;4.614;2023-07-24T10:38:45;24.10;63.20
17495;DHT22;8864;51.970;4.614;2023-07-24T10:41:13;24.10;63.30
17495;DHT22;8864;51.970;4.614;2023-07-24T10:43:41;24.10;63.20
17495;DHT22;8864;51.970;4.614;2023-07-24T10:46:09;24.10;63.20
17495;DHT22;8864;51.970;4.614;2023-07-24T10:48:36;24.10;63.30
17495;DHT22;8864;51.970;4.614;2023-07-24T10:51:09;24.10;63.20
17495;DHT22;8864;51.970;4.614;2023-07-24T10:53:37;24.10;63.20
17495;DHT22;8864;51.970;4.614;2023-07-24T10:56:05;24.10;63.20
17495;DHT22;8864;51.970;4.614;2023-07-24T10:58:33;24.20;63.30
17495;DHT22;8864;51.970;4.614;2023-07-24T11:01:03;24.20;63.30
17495;DHT22;8864;51.970;4.614;2023-07-24T11:03:31;24.20;63.30
17495;DHT22;8864;51.970;4.614;2023-07-24T11:05:58;24.20;63.30
17495;DHT22;8864;51.970;4.614;2023-07-24T11:08:27;24.20;63.20
17495;DHT22;8864;51.970;4.614;2023-07-24T11:10:55;24.20;63.20
17495;DHT22;8864;51.970;4.614;2023-07-24T11:13:23;24.20;63.20
17495;DHT22;8864;51.970;4.614;2023-07-24T11:15:51;24.20;63.20
17495;DHT22;8864;51.970;4.614;2023-07-24T11:18:19;24.20;63.20
17495;DHT22;8864;51.970;4.614;2023-07-24T11:20:49;24.20;63.10
17495;DHT22;8864;51.970;4.614;2023-07-24T11:23:17;24.20;63.10
17495;DHT22;8864;51.970;4.614;2023-07-24T11:25:46;24.20;63.10
17495;DHT22;8864;51.970;4.614;2023-07-24T11:28:14;24.20;63.90
17495;DHT22;8864;51.970;4.614;2023-07-24T11:30:41;24.20;63.10
17495;DHT22;8864;51.970;4.614;2023-07-24T11:33:11;24.20;63.10
17495;DHT22;8864;51.970;4.614;2023-07-24T11:35:39;24.20;63.10
17495;DHT22;8864;51.970;4.614;2023-07-24T11:38:08;24.20;63.10
17495;DHT22;8864;51.970;4.614;2023-07-24T11:40:37;24.20;63.10
17495;DHT22;8864;51.970;4.614;2023-07-24T11:43:15;24.30;63.10
17495;DHT22;8864;51.970;4.614;2023-07-24T11:45:43;24.30;63.10
17495;DHT22;8864;51.970;4.614;2023-07-24T11:48:10;24.30;63.10
17495;DHT22;8864;51.970;4.614;2023-07-24T11:50:42;24.30;63.10
17495;DHT22;8864;51.970;4.614;2023-07-24T11:53:19;24.30;63.10
17495;DHT22;8864;51.970;4.614;2023-07-24T11:55:48;24.30;63.10
17495;DHT22;8864;51.970;4.614;2023-07-24T11:58:17;24.30;63.10
17495;DHT22;8864;51.970;4.614;2023-07-24T12:00:47;24.30;63.20
17495;DHT22;8864;51.970;4.614;2023-07-24T12:03:15;24.30;63.20
17495;DHT22;8864;51.970;4.614;2023-07-24T12:05:45;24.30;63.20
17495;DHT22;8864;51.970;4.614;2023-07-24T12:08:12;24.30;63.10
17495;DHT22;8864;51.970;4.614;2023-07-24T12:10:41;24.30;63.10
17495;DHT22;8864;51.970;4.614;2023-07-24T12:13:08;24.30;63.10
17495;DHT22;8864;51.970;4.614;2023-07-24T12:15:36;24.30;63.10
17495;DHT22;8864;51.970;4.614;2023-07-24T12:18:03;24.30;63.10
17495;DHT22;8864;51.970;4.614;2023-07-24T12:20:31;24.30;63.10
17495;DHT22;8864;51.970;4.614;2023-07-24T12:22:59;24.30;63.10
17495;DHT22;8864;51.970;4.614;2023-07-24T12:25:26;24.30;63.10
17495;DHT22;8864;51.970;4.614;2023-07-24T12:27:53;24.30;63.10
17495;DHT22;8864;51.970;4.614;2023-07-24T12:30:20;24.30;63.20
17495;DHT22;8864;51.970;4.614;2023-07-24T12:32:48;24.30;63.10
17495;DHT22;8864;51.970;4.614;2023-07-24T12:35:16;24.30;63.10
17495;DHT22;8864;51.970;4.614;2023-07-24T12:37:43;24.30;63.10
17495;DHT22;8864;51.970;4.614;2023-07-24T12:40:11;24.40;63.10
17495;DHT22;8864;51.970;4.614;2023-07-24T12:42:38;24.40;63.10
17495;DHT22;8864;51.970;4.614;2023-07-24T12:45:06;24.40;63.10
17495;DHT22;8864;51.970;4.614;2023-07-24T12:47:33;24.40;63.10
17495;DHT22;8864;51.970;4.614;2023-07-24T12:50:01;24.40;63.20
17495;DHT22;8864;51.970;4.614;2023-07-24T12:52:29;24.40;63.20
17495;DHT22;8864;51.970;4.614;2023-07-24T12:54:56;24.40;63.20
17495;DHT22;8864;51.970;4.614;2023-07-24T12:57:23;24.40;63.20
17495;DHT22;8864;51.970;4.614;2023-07-24T12:59:51;24.40;63.10
17495;DHT22;8864;51.970;4.614;2023-07-24T13:02:18;24.40;63.10
17495;DHT22;8864;51.970;4.614;2023-07-24T13:04:47;24.40;63.10
17495;DHT22;8864;51.970;4.614;2023-07-24T13:07:16;24.40;63.10
17495;DHT22;8864;51.970;4.614;2023-07-24T13:09:43;24.50;63.20
17495;DHT22;8864;51.970;4.614;2023-07-24T13:12:10;24.50;63.10
17495;DHT22;8864;51.970;4.614;2023-07-24T13:14:37;24.50;63.10
17495;DHT22;8864;51.970;4.614;2023-07-24T13:17:05;24.50;63.10
17495;DHT22;8864;51.970;4.614;2023-07-24T13:19:32;24.50;63.10
17495;DHT22;8864;51.970;4.614;2023-07-24T13:22:00;24.50;63.10
17495;DHT22;8864;51.970;4.614;2023-07-24T13:24:28;24.50;63.10
17495;DHT22;8864;51.970;4.614;2023-07-24T13:26:55;24.50;63.10
17495;DHT22;8864;51.970;4.614;2023-07-24T13:29:22;24.50;63.10
17495;DHT22;8864;51.970;4.614;2023-07-24T13:31:50;24.50;63.00
17495;DHT22;8864;51.970;4.614;2023-07-24T13:34:17;24.50;63.10
17495;DHT22;8864;51.970;4.614;2023-07-24T13:36:45;24.50;63.00
17495;DHT22;8864;51.970;4.614;2023-07-24T13:39:12;24.50;63.00
17495;DHT22;8864;51.970;4.614;2023-07-24T13:41:40;24.50;63.00
17495;DHT22;8864;51.970;4.614;2023-07-24T13:44:07;24.50;63.00
17495;DHT22;8864;51.970;4.614;2023-07-24T13:46:34;24.50;63.00
17495;DHT22;8864;51.970;4.614;2023-07-24T13:49:01;24.60;63.00
17495;DHT22;8864;51.970;4.614;2023-07-24T13:51:31;24.50;62.90
17495;DHT22;8864;51.970;4.614;2023-07-24T13:53:58;24.60;63.00
17495;DHT22;8864;51.970;4.614;2023-07-24T13:56:25;24.60;63.00
17495;DHT22;8864;51.970;4.614;2023-07-24T13:58:56;24.60;63.00
17495;DHT22;8864;51.970;4.614;2023-07-24T14:01:23;24.60;63.00
17495;DHT22;8864;51.970;4.614;2023-07-24T14:03:50;24.60;63.00
17495;DHT22;8864;51.970;4.614;2023-07-24T14:06:17;24.50;62.90
17495;DHT22;8864;51.970;4.614;2023-07-24T14:08:44;24.60;63.00
17495;DHT22;8864;51.970;4.614;2023-07-24T14:11:11;24.60;62.90
17495;DHT22;8864;51.970;4.614;2023-07-24T14:13:38;24.60;63.00
17495;DHT22;8864;51.970;4.614;2023-07-24T14:16:06;24.60;63.00
17495;DHT22;8864;51.970;4.614;2023-07-24T14:18:33;24.60;63.00
17495;DHT22;8864;51.970;4.614;2023-07-24T14:21:00;24.50;62.90
17495;DHT22;8864;51.970;4.614;2023-07-24T14:23:27;24.60;62.90
17495;DHT22;8864;51.970;4.614;2023-07-24T14:25:54;24.60;62.90
17495;DHT22;8864;51.970;4.614;2023-07-24T14:28:21;24.60;62.90
17495;DHT22;8864;51.970;4.614;2023-07-24T14:30:48;24.60;62.80
17495;DHT22;8864;51.970;4.614;2023-07-24T14:33:16;24.60;62.80
17495;DHT22;8864;51.970;4.614;2023-07-24T14:35:43;24.60;62.80
17495;DHT22;8864;51.970;4.614;2023-07-24T14:38:10;24.60;62.90
17495;DHT22;8864;51.970;4.614;2023-07-24T14:40:37;24.60;62.80
17495;DHT22;8864;51.970;4.614;2023-07-24T14:43:05;24.60;62.80
17495;DHT22;8864;51.970;4.614;2023-07-24T14:45:32;24.60;62.80
17495;DHT22;8864;51.970;4.614;2023-07-24T14:47:59;24.60;62.80
17495;DHT22;8864;51.970;4.614;2023-07-24T14:50:27;24.60;62.80
17495;DHT22;8864;51.970;4.614;2023-07-24T14:52:54;24.60;62.80
17495;DHT22;8864;51.970;4.614;2023-07-24T14:55:21;24.60;62.80
17495;DHT22;8864;51.970;4.614;2023-07-24T14:57:49;24.60;62.90
17495;DHT22;8864;51.970;4.614;2023-07-24T15:00:16;24.60;63.00
17495;DHT22;8864;51.970;4.614;2023-07-24T15:02:43;24.60;63.00
17495;DHT22;8864;51.970;4.614;2023-07-24T15:05:10;24.60;63.10
17495;DHT22;8864;51.970;4.614;2023-07-24T15:07:39;24.60;63.00
17495;DHT22;8864;51.970;4.614;2023-07-24T15:10:06;24.60;63.00
17495;DHT22;8864;51.970;4.614;2023-07-24T15:12:33;24.60;63.10
17495;DHT22;8864;51.970;4.614;2023-07-24T15:15:00;24.60;63.30
17495;DHT22;8864;51.970;4.614;2023-07-24T15:17:27;24.60;63.30
17495;DHT22;8864;51.970;4.614;2023-07-24T15:19:54;24.60;63.40
17495;DHT22;8864;51.970;4.614;2023-07-24T15:22:21;24.60;63.30
17495;DHT22;8864;51.970;4.614;2023-07-24T15:24:50;24.60;63.30
17495;DHT22;8864;51.970;4.614;2023-07-24T15:27:17;24.60;63.30
17495;DHT22;8864;51.970;4.614;2023-07-24T15:29:44;24.60;63.20
17495;DHT22;8864;51.970;4.614;2023-07-24T15:32:13;24.60;63.20
17495;DHT22;8864;51.970;4.614;2023-07-24T15:34:40;24.60;63.20
17495;DHT22;8864;51.970;4.614;2023-07-24T15:37:08;24.60;63.20
17495;DHT22;8864;51.970;4.614;2023-07-24T15:39:35;24.60;63.10
17495;DHT22;8864;51.970;4.614;2023-07-24T15:42:04;24.60;63.10
17495;DHT22;8864;51.970;4.614;2023-07-24T15:44:31;24.60;63.10
17495;DHT22;8864;51.970;4.614;2023-07-24T15:46:58;24.60;63.00
17495;DHT22;8864;51.970;4.614;2023-07-24T15:49:25;24.60;62.90
17495;DHT22;8864;51.970;4.614;2023-07-24T15:51:52;24.60;62.90